createdAt,value
2023-09-29T00:00:56.393Z,5.40
2023-09-29T00:03:24.214Z,6.90
2023-09-29T00:05:51.949Z,7.00
2023-09-29T00:08:23.510Z,9.77
2023-09-29T00:10:52.518Z,5.30
2023-09-29T00:13:20.038Z,6.70
2023-09-29T00:15:50.479Z,5.73
2023-09-29T00:18:18.104Z,10.30
2023-09-29T00:20:45.670Z,5.23
2023-09-29T00:23:13.985Z,6.33
2023-09-29T00:25:41.491Z,5.60
2023-09-29T00:28:11.888Z,5.13
2023-09-29T00:30:39.701Z,9.07
2023-09-29T00:33:07.352Z,5.10
2023-09-29T00:35:34.974Z,5.10
2023-09-29T00:38:03.549Z,4.57
2023-09-29T00:40:31.843Z,5.50
2023-09-29T00:43:00.125Z,6.57
2023-09-29T00:45:29.572Z,5.27
2023-09-29T00:47:59.075Z,7.83
2023-09-29T00:50:28.948Z,7.10
2023-09-29T00:53:00.566Z,10.33
2023-09-29T00:55:29.861Z,13.20
2023-09-29T00:57:59.505Z,5.67
2023-09-29T01:00:32.686Z,6.63
2023-09-29T01:03:06.640Z,5.77
2023-09-29T01:05:37.563Z,4.90
2023-09-29T01:08:09.661Z,5.90
2023-09-29T01:10:37.774Z,6.20
2023-09-29T01:13:06.357Z,6.47
2023-09-29T01:15:35.640Z,6.23
2023-09-29T01:18:05.645Z,9.00
2023-09-29T01:20:35.717Z,5.63
2023-09-29T01:23:05.531Z,6.83
2023-09-29T01:25:35.034Z,6.30
2023-09-29T01:28:04.024Z,6.47
2023-09-29T01:30:31.833Z,6.77
2023-09-29T01:33:00.554Z,5.70
2023-09-29T01:35:29.641Z,6.67
2023-09-29T01:38:00.235Z,5.33
2023-09-29T01:40:29.253Z,5.70
2023-09-29T01:42:59.028Z,5.80
2023-09-29T01:45:27.809Z,5.60
2023-09-29T01:47:56.607Z,6.50
2023-09-29T01:50:25.082Z,6.17
2023-09-29T01:52:53.515Z,6.13
2023-09-29T01:55:24.914Z,5.83
2023-09-29T01:57:55.788Z,7.57
2023-09-29T02:00:26.643Z,6.40
2023-09-29T02:02:56.310Z,5.07
2023-09-29T02:05:24.954Z,6.00
2023-09-29T02:07:52.873Z,5.60
2023-09-29T02:10:22.098Z,4.77
2023-09-29T02:12:55.536Z,5.23
2023-09-29T02:15:25.721Z,5.20
2023-09-29T02:17:53.601Z,4.50
2023-09-29T02:20:22.314Z,6.23
2023-09-29T02:22:50.612Z,5.80
2023-09-29T02:25:20.093Z,4.77
2023-09-29T02:27:48.819Z,5.40
2023-09-29T02:30:17.544Z,6.83
2023-09-29T02:32:46.430Z,5.93
2023-09-29T02:35:14.025Z,6.90
2023-09-29T02:37:42.425Z,5.53
2023-09-29T02:40:16.156Z,5.37
2023-09-29T02:42:45.347Z,7.20
2023-09-29T02:45:13.127Z,5.97
2023-09-29T02:47:42.495Z,7.23
2023-09-29T02:50:13.324Z,5.97
2023-09-29T02:52:41.778Z,4.33
2023-09-29T02:55:14.050Z,6.67
2023-09-29T02:57:43.591Z,7.80
2023-09-29T03:00:16.773Z,4.27
2023-09-29T03:02:44.840Z,5.33
2023-09-29T03:05:15.435Z,8.17
2023-09-29T03:07:43.140Z,5.87
2023-09-29T03:10:13.841Z,4.90
2023-09-29T03:12:41.451Z,6.53
2023-09-29T03:15:10.732Z,5.50
2023-09-29T03:17:38.777Z,5.27
2023-09-29T03:20:11.663Z,6.30
2023-09-29T03:22:40.979Z,5.17
2023-09-29T03:25:10.839Z,7.73
2023-09-29T03:27:41.003Z,12.80
2023-09-29T03:30:10.765Z,5.50
2023-09-29T03:32:38.538Z,7.60
2023-09-29T03:35:07.113Z,7.23
2023-09-29T03:37:37.373Z,5.63
2023-09-29T03:40:10.038Z,9.47
2023-09-29T03:42:42.625Z,5.63
2023-09-29T03:45:12.228Z,5.83
2023-09-29T03:47:40.175Z,4.97
2023-09-29T03:50:09.965Z,5.77
2023-09-29T03:52:38.174Z,5.20
2023-09-29T03:55:07.676Z,5.87
2023-09-29T03:57:35.901Z,10.80
2023-09-29T04:00:05.114Z,6.73
2023-09-29T04:02:33.503Z,5.83
2023-09-29T04:05:01.135Z,5.20
2023-09-29T04:07:28.649Z,4.70
2023-09-29T04:09:56.543Z,5.30
2023-09-29T04:12:25.415Z,7.03
2023-09-29T04:14:54.148Z,5.27
2023-09-29T04:17:21.741Z,7.07
2023-09-29T04:19:49.250Z,4.17
2023-09-29T04:22:17.368Z,6.13
2023-09-29T04:24:44.974Z,5.67
2023-09-29T04:27:12.616Z,7.07
2023-09-29T04:29:41.492Z,4.87
2023-09-29T04:32:09.057Z,7.57
2023-09-29T04:34:36.794Z,6.03
2023-09-29T04:37:04.352Z,5.40
2023-09-29T04:39:31.930Z,5.43
2023-09-29T04:41:59.458Z,6.40
2023-09-29T04:44:26.987Z,5.57
2023-09-29T04:46:56.081Z,6.43
2023-09-29T04:49:23.624Z,6.23
2023-09-29T04:51:51.167Z,6.63
2023-09-29T04:54:19.269Z,6.40
2023-09-29T04:56:46.831Z,5.37
2023-09-29T04:59:14.396Z,6.23
2023-09-29T05:01:41.902Z,4.47
2023-09-29T05:04:10.955Z,4.13
2023-09-29T05:06:38.600Z,6.00
2023-09-29T05:09:07.048Z,4.77
2023-09-29T05:11:34.615Z,6.43
2023-09-29T05:14:02.335Z,5.93
2023-09-29T05:16:29.930Z,7.37
2023-09-29T05:18:59.276Z,5.03
2023-09-29T05:21:28.664Z,14.80
2023-09-29T05:23:56.250Z,5.47
2023-09-29T05:26:23.842Z,4.63
2023-09-29T05:28:54.729Z,6.20
2023-09-29T05:31:22.637Z,5.27
2023-09-29T05:33:55.015Z,5.80
2023-09-29T05:36:22.936Z,6.87
2023-09-29T05:38:52.151Z,5.50
2023-09-29T05:41:19.663Z,6.30
2023-09-29T05:43:47.292Z,6.03
2023-09-29T05:46:14.806Z,7.03
2023-09-29T05:48:42.401Z,6.03
2023-09-29T05:51:09.947Z,6.80
2023-09-29T05:53:37.614Z,4.83
2023-09-29T05:56:10.425Z,5.80
2023-09-29T05:58:38.467Z,5.97
2023-09-29T06:01:10.598Z,5.20
2023-09-29T06:03:39.076Z,6.53
2023-09-29T06:06:07.029Z,6.90
2023-09-29T06:11:23.754Z,5.63
2023-09-29T06:13:51.289Z,6.50
2023-09-29T06:16:18.849Z,4.97
2023-09-29T06:18:47.722Z,6.33
2023-09-29T06:21:17.090Z,7.67
2023-09-29T06:23:44.659Z,7.23
2023-09-29T06:26:12.231Z,6.90
2023-09-29T06:28:41.083Z,4.80
2023-09-29T06:31:09.640Z,5.17
2023-09-29T06:33:37.344Z,7.33
2023-09-29T06:36:05.828Z,7.00
2023-09-29T06:38:33.537Z,7.10
2023-09-29T06:41:01.116Z,6.37
2023-09-29T06:43:28.643Z,5.57
2023-09-29T06:46:01.774Z,6.23
2023-09-29T06:48:29.995Z,6.80
2023-09-29T06:51:00.580Z,7.77
2023-09-29T06:53:29.761Z,6.20
2023-09-29T06:55:59.041Z,6.30
2023-09-29T06:58:26.713Z,7.80
2023-09-29T07:00:54.271Z,5.50
2023-09-29T07:03:23.262Z,12.53
2023-09-29T07:05:51.170Z,5.30
2023-09-29T07:08:19.159Z,6.97
2023-09-29T07:10:47.135Z,8.60
2023-09-29T07:13:15.158Z,6.43
2023-09-29T07:15:42.841Z,6.63
2023-09-29T07:18:12.251Z,10.17
2023-09-29T07:20:41.322Z,11.10
2023-09-29T07:23:09.854Z,6.77
2023-09-29T07:25:38.543Z,7.43
2023-09-29T07:28:06.924Z,8.40
2023-09-29T07:30:34.591Z,7.90
2023-09-29T07:33:02.191Z,8.07
2023-09-29T07:35:29.876Z,7.77
2023-09-29T07:37:59.666Z,6.30
2023-09-29T07:40:27.160Z,8.20
2023-09-29T07:42:54.834Z,19.43
2023-09-29T07:45:22.786Z,9.20
2023-09-29T07:47:50.498Z,6.97
2023-09-29T07:50:18.374Z,8.80
2023-09-29T07:52:45.998Z,7.10
2023-09-29T07:55:15.274Z,9.83
2023-09-29T07:57:42.836Z,7.43
2023-09-29T08:00:11.679Z,6.40
2023-09-29T08:02:39.746Z,7.33
2023-09-29T08:05:08.789Z,9.80
2023-09-29T08:07:36.336Z,7.23
2023-09-29T08:10:04.941Z,7.63
2023-09-29T08:12:33.844Z,9.97
2023-09-29T08:15:01.399Z,5.77
2023-09-29T08:17:29.022Z,6.93
2023-09-29T08:19:56.560Z,5.07
2023-09-29T08:22:37.953Z,5.37
2023-09-29T08:25:09.180Z,5.27
2023-09-29T08:27:38.721Z,8.80
2023-09-29T08:30:08.214Z,7.53
2023-09-29T08:32:38.160Z,10.60
2023-09-29T08:35:07.118Z,5.13
2023-09-29T08:37:34.692Z,5.03
2023-09-29T08:40:02.256Z,8.63
2023-09-29T08:42:37.612Z,3.97
2023-09-29T08:45:11.574Z,5.77
2023-09-29T08:47:40.212Z,6.33
2023-09-29T08:50:09.976Z,6.30
2023-09-29T08:52:38.261Z,6.10
2023-09-29T08:55:06.626Z,4.30
2023-09-29T08:57:35.680Z,5.87
2023-09-29T09:00:04.302Z,5.80
2023-09-29T09:02:33.298Z,5.07
2023-09-29T09:05:00.911Z,5.60
2023-09-29T09:07:28.837Z,5.20
2023-09-29T09:09:58.362Z,4.30
2023-09-29T09:12:34.066Z,9.13
2023-09-29T09:15:02.192Z,5.63
2023-09-29T09:17:30.286Z,5.33
2023-09-29T09:19:59.157Z,3.87
2023-09-29T09:22:43.154Z,5.67
2023-09-29T09:25:15.384Z,8.03
2023-09-29T09:27:44.806Z,3.67
2023-09-29T09:30:22.272Z,6.10
2023-09-29T09:32:49.981Z,3.20
2023-09-29T09:35:26.865Z,7.37
2023-09-29T09:37:54.564Z,5.17
2023-09-29T09:40:24.973Z,7.07
2023-09-29T09:42:54.581Z,7.27
2023-09-29T09:45:26.915Z,6.87
2023-09-29T09:47:58.409Z,5.03
2023-09-29T09:50:30.213Z,5.00
2023-09-29T09:52:59.367Z,7.80
2023-09-29T09:55:34.968Z,7.07
2023-09-29T09:58:07.698Z,4.00
2023-09-29T10:00:35.332Z,5.77
2023-09-29T10:03:12.621Z,5.67
2023-09-29T10:05:43.500Z,4.80
2023-09-29T10:08:13.879Z,3.40
2023-09-29T10:10:42.808Z,7.00
2023-09-29T10:13:13.371Z,4.50
2023-09-29T10:15:41.491Z,5.27
2023-09-29T10:18:17.610Z,4.90
2023-09-29T10:20:50.718Z,5.20
2023-09-29T10:23:19.327Z,6.37
2023-09-29T10:25:58.636Z,5.43
2023-09-29T10:28:32.340Z,3.70
2023-09-29T10:31:08.221Z,5.23
2023-09-29T10:33:48.527Z,5.00
2023-09-29T10:36:17.458Z,5.30
2023-09-29T10:38:45.248Z,4.57
2023-09-29T10:41:31.567Z,5.53
2023-09-29T10:44:02.154Z,4.63
2023-09-29T10:46:30.321Z,7.10
2023-09-29T10:48:58.126Z,4.67
2023-09-29T10:51:29.051Z,3.30
2023-09-29T10:53:58.573Z,3.33
2023-09-29T10:56:27.817Z,5.50
2023-09-29T10:58:56.731Z,4.70
2023-09-29T11:03:56.894Z,4.23
2023-09-29T11:06:25.283Z,5.60
2023-09-29T11:08:55.963Z,3.10
2023-09-29T11:11:23.717Z,4.80
2023-09-29T11:13:56.149Z,3.57
2023-09-29T11:16:26.455Z,4.90
2023-09-29T11:18:57.360Z,4.57
2023-09-29T11:21:35.805Z,5.17
2023-09-29T11:24:10.028Z,3.53
2023-09-29T11:26:41.826Z,3.47
2023-09-29T11:29:10.478Z,5.20
2023-09-29T11:31:39.752Z,4.30
2023-09-29T11:34:09.160Z,3.30
2023-09-29T11:36:36.743Z,3.30
2023-09-29T11:39:04.867Z,3.57
2023-09-29T11:41:34.791Z,15.40
2023-09-29T11:44:02.305Z,3.10
2023-09-29T11:46:29.952Z,3.93
2023-09-29T11:48:57.495Z,3.20
2023-09-29T11:51:27.035Z,5.17
2023-09-29T11:53:54.911Z,3.50
2023-09-29T11:56:22.746Z,2.80
2023-09-29T11:58:52.494Z,2.67
2023-09-29T12:01:20.750Z,2.53
2023-09-29T12:03:48.396Z,3.10
2023-09-29T12:06:16.726Z,2.73
2023-09-29T12:08:44.266Z,2.83
2023-09-29T12:11:11.823Z,3.40
2023-09-29T12:13:40.773Z,4.73
2023-09-29T12:16:10.869Z,2.77
2023-09-29T12:18:38.653Z,2.30
2023-09-29T12:21:09.677Z,3.00
2023-09-29T12:23:37.264Z,2.30
2023-09-29T12:26:06.894Z,3.37
2023-09-29T12:28:36.260Z,2.43
2023-09-29T12:31:04.111Z,2.57
2023-09-29T12:33:34.231Z,2.40
2023-09-29T12:36:01.882Z,3.20
2023-09-29T12:38:29.484Z,2.10
2023-09-29T12:40:56.978Z,2.43
2023-09-29T12:43:24.519Z,2.67
2023-09-29T12:45:52.244Z,3.23
2023-09-29T12:48:19.923Z,2.40
2023-09-29T12:50:49.284Z,2.97
2023-09-29T12:53:16.915Z,2.70
2023-09-29T12:55:44.438Z,4.80
2023-09-29T12:58:12.679Z,3.33
2023-09-29T13:00:40.688Z,4.00
2023-09-29T13:03:08.537Z,3.50
2023-09-29T13:05:38.471Z,2.60
2023-09-29T13:08:08.325Z,3.00
2023-09-29T13:10:38.325Z,2.80
2023-09-29T13:13:06.867Z,3.50
2023-09-29T13:15:34.987Z,3.77
2023-09-29T13:18:02.864Z,4.07
2023-09-29T13:20:30.514Z,3.50
2023-09-29T13:22:58.043Z,5.40
2023-09-29T13:25:27.569Z,8.33
2023-09-29T13:27:55.093Z,6.30
2023-09-29T13:30:22.802Z,8.20
2023-09-29T13:32:50.474Z,8.70
2023-09-29T13:35:18.233Z,8.00
2023-09-29T13:37:45.735Z,6.13
2023-09-29T13:40:13.512Z,9.83
2023-09-29T13:42:42.568Z,7.97
2023-09-29T13:45:13.433Z,8.37
2023-09-29T13:47:42.091Z,8.30
2023-09-29T13:50:12.296Z,12.10
2023-09-29T13:52:41.362Z,9.23
2023-09-29T13:55:09.648Z,10.37
2023-09-29T13:57:37.146Z,9.87
2023-09-29T14:00:08.736Z,12.47
2023-09-29T14:02:36.396Z,16.60
2023-09-29T14:05:06.318Z,15.10
2023-09-29T14:07:33.895Z,19.47
2023-09-29T14:10:01.424Z,19.73
2023-09-29T14:12:30.926Z,16.17
2023-09-29T14:14:58.509Z,20.00
2023-09-29T14:17:27.397Z,13.60
2023-09-29T14:19:55.035Z,13.60
2023-09-29T14:22:22.546Z,20.40
2023-09-29T14:24:50.235Z,17.53
2023-09-29T14:27:17.878Z,18.00
2023-09-29T14:29:45.869Z,21.07
2023-09-29T14:32:13.411Z,19.43
2023-09-29T14:34:42.238Z,15.70
2023-09-29T14:37:10.635Z,23.60
2023-09-29T14:39:38.321Z,18.57
2023-09-29T14:42:05.998Z,18.10
2023-09-29T14:44:34.233Z,18.53
2023-09-29T14:47:01.757Z,20.60
2023-09-29T14:49:29.248Z,17.27
2023-09-29T14:51:58.077Z,16.33
2023-09-29T14:54:25.648Z,22.50
2023-09-29T14:56:53.284Z,17.13
2023-09-29T14:59:21.680Z,22.33
2023-09-29T15:01:49.667Z,22.90
2023-09-29T15:04:17.888Z,18.00
2023-09-29T15:06:45.451Z,22.53
2023-09-29T15:09:14.705Z,22.93
2023-09-29T15:11:42.296Z,21.50
2023-09-29T15:14:09.863Z,16.33
2023-09-29T15:16:38.535Z,19.57
2023-09-29T15:19:07.291Z,24.40
2023-09-29T15:21:36.224Z,19.73
2023-09-29T15:24:04.263Z,24.93
2023-09-29T15:26:34.637Z,22.57
2023-09-29T15:29:02.138Z,23.90
2023-09-29T15:31:30.051Z,19.57
2023-09-29T15:33:57.847Z,22.20
2023-09-29T15:36:31.205Z,15.77
2023-09-29T15:38:59.077Z,19.03
2023-09-29T15:41:26.658Z,21.80
2023-09-29T15:43:55.699Z,18.17
2023-09-29T15:46:23.388Z,18.40
2023-09-29T15:48:51.074Z,21.07
2023-09-29T15:51:18.918Z,17.57
2023-09-29T15:53:46.529Z,14.80
2023-09-29T15:56:14.073Z,23.57
2023-09-29T15:58:42.322Z,21.43
2023-09-29T16:01:13.229Z,21.63
2023-09-29T16:03:41.111Z,16.20
2023-09-29T16:06:09.538Z,14.60
2023-09-29T16:08:39.015Z,14.77
2023-09-29T16:11:06.724Z,18.30
2023-09-29T16:13:35.225Z,11.87
2023-09-29T16:16:04.259Z,15.17
2023-09-29T16:18:33.594Z,16.07
2023-09-29T16:21:01.437Z,15.33
2023-09-29T16:23:29.046Z,15.63
2023-09-29T16:25:56.956Z,16.27
2023-09-29T16:28:24.497Z,15.20
2023-09-29T16:30:52.451Z,11.67
2023-09-29T16:33:20.046Z,11.67
2023-09-29T16:35:48.936Z,16.37
2023-09-29T16:38:16.451Z,14.57
2023-09-29T16:40:44.754Z,14.93
2023-09-29T16:43:12.928Z,10.40
2023-09-29T16:45:40.607Z,11.40
2023-09-29T16:48:08.567Z,10.37
2023-09-29T16:50:36.196Z,17.43
2023-09-29T16:53:06.350Z,10.50
2023-09-29T16:55:33.962Z,11.87
2023-09-29T16:58:01.644Z,22.40
2023-09-29T17:00:29.564Z,16.07
2023-09-29T17:02:57.270Z,8.30
2023-09-29T17:05:24.927Z,10.40
2023-09-29T17:07:54.759Z,10.07
2023-09-29T17:10:23.848Z,9.43
2023-09-29T17:12:51.374Z,18.90
2023-09-29T17:15:19.292Z,6.87
2023-09-29T17:17:46.977Z,22.13
2023-09-29T17:20:15.376Z,13.77
2023-09-29T17:22:45.177Z,12.10
2023-09-29T17:25:14.798Z,11.80
2023-09-29T17:27:43.760Z,13.73
2023-09-29T17:30:12.991Z,11.60
2023-09-29T17:32:40.772Z,11.03
2023-09-29T17:35:09.797Z,8.93
2023-09-29T17:37:37.604Z,13.43
2023-09-29T17:40:05.615Z,11.07
2023-09-29T17:42:33.219Z,17.53
2023-09-29T17:45:02.195Z,11.43
2023-09-29T17:47:29.839Z,9.83
2023-09-29T17:49:57.361Z,16.17
2023-09-29T17:52:25.485Z,13.97
2023-09-29T17:54:53.074Z,15.27
2023-09-29T17:57:20.642Z,9.17
2023-09-29T17:59:48.149Z,7.70
2023-09-29T18:02:17.094Z,8.90
2023-09-29T18:04:44.745Z,10.87
2023-09-29T18:07:12.540Z,10.80
2023-09-29T18:09:40.130Z,6.93
2023-09-29T18:12:08.282Z,14.03
2023-09-29T18:14:35.856Z,16.33
2023-09-29T18:17:04.856Z,14.37
2023-09-29T18:19:33.847Z,8.30
2023-09-29T18:22:01.408Z,7.93
2023-09-29T18:24:29.023Z,6.00
2023-09-29T18:26:58.489Z,9.90
2023-09-29T18:29:26.230Z,9.83
2023-09-29T18:31:53.915Z,6.30
2023-09-29T18:34:21.551Z,11.90
2023-09-29T18:36:51.985Z,9.17
2023-09-29T18:39:19.584Z,12.50
2023-09-29T18:41:47.122Z,6.00
2023-09-29T18:44:14.637Z,11.47
2023-09-29T18:46:42.615Z,9.07
2023-09-29T18:49:10.179Z,9.03
2023-09-29T18:51:37.841Z,6.57
2023-09-29T18:54:07.122Z,8.50
2023-09-29T18:56:39.552Z,3.93
2023-09-29T18:59:07.182Z,5.50
2023-09-29T19:01:34.715Z,8.20
2023-09-29T19:04:02.289Z,4.10
2023-09-29T19:06:29.930Z,10.10
2023-09-29T19:08:58.206Z,7.63
2023-09-29T19:11:27.282Z,4.07
2023-09-29T19:13:55.394Z,8.00
2023-09-29T19:16:22.986Z,7.50
2023-09-29T19:18:51.417Z,5.40
2023-09-29T19:21:20.550Z,6.43
2023-09-29T19:23:52.231Z,4.93
2023-09-29T19:26:19.776Z,7.80
2023-09-29T19:28:48.749Z,8.30
2023-09-29T19:31:16.307Z,6.43
2023-09-29T19:33:45.113Z,6.53
2023-09-29T19:36:12.725Z,7.03
2023-09-29T19:38:40.302Z,6.53
2023-09-29T19:41:08.192Z,8.37
2023-09-29T19:43:35.757Z,6.50
2023-09-29T19:46:05.276Z,5.30
2023-09-29T19:48:33.396Z,5.30
2023-09-29T19:51:04.768Z,6.10
2023-09-29T19:53:32.610Z,4.37
2023-09-29T19:56:00.868Z,3.90
2023-09-29T19:58:28.494Z,3.10
2023-09-29T20:00:56.205Z,1.00
2023-09-29T20:03:25.196Z,2.40
2023-09-29T20:05:52.892Z,2.30
2023-09-29T20:08:20.496Z,1.70
2023-09-29T20:10:48.083Z,3.70
2023-09-29T20:13:15.653Z,2.33
2023-09-29T20:15:43.206Z,2.70
2023-09-29T20:18:10.969Z,2.23
2023-09-29T20:20:39.946Z,3.53
2023-09-29T20:23:08.853Z,3.67
2023-09-29T20:25:36.458Z,2.63
2023-09-29T20:28:04.008Z,3.93
2023-09-29T20:30:31.607Z,2.60
2023-09-29T20:32:59.249Z,3.57
2023-09-29T20:35:26.915Z,3.87
2023-09-29T20:37:55.832Z,1.87
2023-09-29T20:40:23.483Z,2.73
2023-09-29T20:42:51.036Z,5.00
2023-09-29T20:45:18.865Z,2.17
2023-09-29T20:47:46.503Z,3.23
2023-09-29T20:50:14.093Z,2.67
2023-09-29T20:52:41.629Z,2.00
2023-09-29T20:55:11.295Z,5.23
2023-09-29T20:57:39.872Z,2.87
2023-09-29T21:00:09.935Z,3.37
2023-09-29T21:02:37.775Z,5.43
2023-09-29T21:05:07.834Z,6.63
2023-09-29T21:07:35.403Z,5.00
2023-09-29T21:10:03.721Z,4.10
2023-09-29T21:12:33.014Z,5.20
2023-09-29T21:15:00.652Z,6.20
2023-09-29T21:17:28.628Z,4.60
2023-09-29T21:19:56.301Z,3.03
2023-09-29T21:22:23.916Z,5.70
2023-09-29T21:24:51.644Z,4.47
2023-09-29T21:27:19.401Z,2.83
2023-09-29T21:29:48.809Z,3.50
2023-09-29T21:32:16.329Z,3.53
2023-09-29T21:34:43.844Z,3.17
2023-09-29T21:37:11.436Z,3.57
2023-09-29T21:39:39.182Z,3.10
2023-09-29T21:42:07.152Z,4.90
2023-09-29T21:44:34.668Z,2.80
2023-09-29T21:47:03.534Z,2.70
2023-09-29T21:49:31.088Z,4.60
2023-09-29T21:51:58.650Z,4.73
2023-09-29T21:54:26.255Z,2.23
2023-09-29T21:56:53.857Z,4.13
2023-09-29T21:59:21.469Z,8.33
2023-09-29T22:01:49.635Z,4.40
2023-09-29T22:04:20.209Z,2.90
2023-09-29T22:06:47.861Z,2.93
2023-09-29T22:09:17.096Z,4.20
2023-09-29T22:11:44.935Z,4.70
2023-09-29T22:14:12.594Z,12.30
2023-09-29T22:16:41.247Z,4.20
2023-09-29T22:19:08.818Z,2.07
2023-09-29T22:21:37.742Z,2.83
2023-09-29T22:24:06.084Z,7.13
2023-09-29T22:26:34.007Z,5.80
2023-09-29T22:29:01.707Z,2.90
2023-09-29T22:31:29.312Z,3.37
2023-09-29T22:33:57.921Z,2.30
2023-09-29T22:36:26.064Z,3.90
2023-09-29T22:38:55.953Z,1.63
2023-09-29T22:41:23.519Z,5.40
2023-09-29T22:43:51.013Z,5.73
2023-09-29T22:46:18.658Z,1.97
2023-09-29T22:48:46.263Z,2.30
2023-09-29T22:51:13.899Z,5.83
2023-09-29T22:53:41.645Z,3.20
2023-09-29T22:56:12.964Z,2.90
2023-09-29T22:58:42.036Z,3.43
2023-09-29T23:01:09.996Z,3.27
2023-09-29T23:03:37.802Z,3.80
2023-09-29T23:06:06.255Z,5.63
2023-09-29T23:08:35.037Z,3.60
2023-09-29T23:11:02.595Z,2.33
2023-09-29T23:13:32.248Z,2.60
2023-09-29T23:15:59.830Z,6.40
2023-09-29T23:18:29.411Z,6.90
2023-09-29T23:20:57.413Z,3.83
2023-09-29T23:23:25.690Z,3.30
2023-09-29T23:25:53.274Z,4.80
2023-09-29T23:28:20.827Z,4.10
2023-09-29T23:30:50.877Z,3.17
2023-09-29T23:33:19.282Z,3.67
2023-09-29T23:35:47.910Z,3.97
2023-09-29T23:38:15.571Z,4.23
2023-09-29T23:40:43.124Z,5.10
2023-09-29T23:43:11.338Z,1.23
2023-09-29T23:45:38.941Z,2.77
2023-09-29T23:48:08.908Z,2.17
2023-09-29T23:50:36.625Z,4.70
2023-09-29T23:53:04.700Z,5.40
2023-09-29T23:55:34.160Z,4.60
2023-09-29T23:58:02.122Z,7.03
